createdAt,value
2022-12-07T15:45:24.888Z,4.13
2022-12-07T15:51:18.136Z,4.38
2022-12-07T15:54:06.826Z,4.82
2022-12-07T15:56:52.565Z,2.92
2022-12-07T15:59:38.014Z,4.50
2022-12-07T16:02:24.870Z,4.22
2022-12-07T16:05:10.613Z,4.40
2022-12-07T16:07:55.804Z,3.78
2022-12-07T16:10:44.200Z,4.80
2022-12-07T16:13:29.703Z,6.05
2022-12-07T16:16:17.208Z,3.05
2022-12-07T16:19:03.873Z,3.92
2022-12-07T16:21:48.988Z,4.50
2022-12-07T16:24:34.520Z,3.78
2022-12-07T16:27:20.272Z,2.60
2022-12-07T16:30:06.100Z,2.92
2022-12-07T16:32:51.401Z,4.47
2022-12-07T16:35:41.918Z,3.03
2022-12-07T16:41:12.805Z,5.13
2022-12-07T16:43:58.012Z,2.67
2022-12-07T16:46:44.390Z,4.45
2022-12-07T16:49:30.243Z,4.22
2022-12-07T16:52:20.192Z,4.97
2022-12-07T16:55:06.387Z,2.53
2022-12-07T16:57:51.654Z,3.60
2022-12-07T17:00:38.057Z,4.32
2022-12-07T17:03:23.462Z,4.25
2022-12-07T17:06:16.801Z,4.55
2022-12-07T17:09:02.750Z,4.85
2022-12-07T17:11:48.150Z,1.50
2022-12-07T17:14:52.270Z,3.55
2022-12-07T17:17:37.496Z,2.92
2022-12-07T17:20:25.314Z,3.47
2022-12-07T17:23:10.409Z,5.32
2022-12-07T17:25:55.806Z,5.82
2022-12-07T17:28:41.693Z,5.60
2022-12-07T17:31:27.504Z,5.53
2022-12-07T17:34:14.964Z,3.38
2022-12-07T17:37:00.181Z,6.25
2022-12-07T17:39:45.639Z,5.75
2022-12-07T17:42:36.910Z,5.70
2022-12-07T17:45:22.007Z,4.63
2022-12-07T17:48:07.248Z,6.28
2022-12-07T17:51:11.196Z,6.53
2022-12-07T17:53:57.721Z,3.35
2022-12-07T17:56:43.029Z,6.78
2022-12-07T17:59:28.461Z,6.28
2022-12-07T18:02:14.008Z,5.57
2022-12-07T18:04:59.430Z,4.82
2022-12-07T18:07:44.829Z,5.00
2022-12-07T18:10:30.505Z,8.95
2022-12-07T18:13:34.061Z,6.10
2022-12-07T18:16:24.074Z,5.70
2022-12-07T18:19:13.426Z,6.28
2022-12-07T18:21:59.171Z,5.53
2022-12-07T18:24:44.536Z,5.80
2022-12-07T18:27:30.097Z,4.68
2022-12-07T18:30:15.690Z,6.63
2022-12-07T18:33:01.014Z,4.18
2022-12-07T18:35:47.685Z,6.93
2022-12-07T18:38:33.388Z,4.20
2022-12-07T18:41:18.978Z,5.68
2022-12-07T18:44:05.787Z,5.13
2022-12-07T18:46:52.056Z,5.40
2022-12-07T18:49:37.433Z,5.90
2022-12-07T18:52:22.728Z,4.70
2022-12-07T18:55:08.429Z,2.45
2022-12-07T18:57:55.346Z,5.95
2022-12-07T19:00:40.663Z,6.07
2022-12-07T19:03:31.389Z,5.75
2022-12-07T19:06:18.795Z,5.45
2022-12-07T19:09:04.481Z,5.53
2022-12-07T19:11:49.846Z,4.85
2022-12-07T19:14:37.433Z,9.63
2022-12-07T19:17:23.982Z,7.38
2022-12-07T19:20:13.659Z,5.00
2022-12-07T19:22:59.030Z,4.35
2022-12-07T19:25:44.590Z,4.88
2022-12-07T19:28:29.888Z,5.45
2022-12-07T19:31:15.375Z,6.63
2022-12-07T19:34:00.595Z,3.70
2022-12-07T19:36:47.117Z,5.13
2022-12-07T19:39:32.573Z,5.05
2022-12-07T19:42:18.127Z,7.28
2022-12-07T19:45:03.928Z,4.75
2022-12-07T19:47:49.308Z,2.70
2022-12-07T19:50:34.716Z,8.13
2022-12-07T19:53:20.327Z,6.35
2022-12-07T19:56:06.289Z,4.78
2022-12-07T19:58:52.063Z,4.63
2022-12-07T20:01:38.330Z,5.22
2022-12-07T20:04:26.368Z,5.30
2022-12-07T20:07:11.785Z,5.25
2022-12-07T20:09:56.979Z,4.00
2022-12-07T20:13:08.525Z,6.18
2022-12-07T20:16:11.341Z,4.28
2022-12-07T20:19:00.483Z,2.60
2022-12-07T20:21:46.338Z,4.38
2022-12-07T20:24:34.259Z,4.03
2022-12-07T20:27:19.784Z,5.32
2022-12-07T20:30:05.916Z,3.83
2022-12-07T20:32:51.042Z,3.47
2022-12-07T20:35:36.544Z,3.90
2022-12-07T20:38:21.729Z,3.33
2022-12-07T20:41:29.461Z,4.15
2022-12-07T20:44:16.392Z,4.18
2022-12-07T20:47:01.799Z,3.13
2022-12-07T20:49:46.910Z,4.28
2022-12-07T20:52:32.381Z,5.20
2022-12-07T20:55:17.735Z,4.63
2022-12-07T20:58:02.918Z,6.20
2022-12-07T21:00:48.046Z,4.78
2022-12-07T21:03:33.478Z,3.88
2022-12-07T21:06:19.086Z,3.50
2022-12-07T21:09:04.642Z,6.78
2022-12-07T21:11:49.712Z,3.30
2022-12-07T21:14:35.058Z,4.70
2022-12-07T21:17:20.854Z,4.35
2022-12-07T21:20:07.141Z,4.65
2022-12-07T21:22:52.587Z,5.75
2022-12-07T21:25:38.133Z,5.03
2022-12-07T21:28:23.573Z,4.72
2022-12-07T21:31:13.617Z,5.32
2022-12-07T21:34:02.247Z,8.27
2022-12-07T21:36:47.314Z,10.07
2022-12-07T21:39:32.597Z,11.45
2022-12-07T21:42:17.932Z,11.88
2022-12-07T21:45:03.694Z,9.88
2022-12-07T21:47:49.409Z,13.48
2022-12-07T21:50:37.728Z,14.00
2022-12-07T21:53:22.968Z,12.52
2022-12-07T21:56:17.691Z,13.00
2022-12-07T21:59:08.354Z,16.88
2022-12-07T22:01:53.896Z,14.18
2022-12-07T22:04:39.088Z,13.73
2022-12-07T22:07:24.637Z,13.35
2022-12-07T22:10:10.249Z,16.05
2022-12-07T22:12:59.940Z,15.13
2022-12-07T22:15:45.268Z,16.45
2022-12-07T22:18:30.368Z,14.98
2022-12-07T22:21:15.831Z,15.65
2022-12-07T22:24:01.725Z,14.32
2022-12-07T22:26:47.175Z,17.30
2022-12-07T22:29:32.387Z,15.95
2022-12-07T22:32:47.160Z,14.73
2022-12-07T22:35:23.381Z,17.88
2022-12-07T22:38:14.072Z,13.40
2022-12-07T22:40:59.952Z,15.63
2022-12-07T22:43:45.834Z,14.57
2022-12-07T22:46:31.329Z,13.55
2022-12-07T22:49:16.565Z,15.57
2022-12-07T22:52:01.759Z,15.27
2022-12-07T22:54:47.186Z,15.35
2022-12-07T22:57:32.532Z,16.00
2022-12-07T23:00:21.155Z,13.43
2022-12-07T23:03:06.788Z,13.73
2022-12-07T23:05:52.857Z,13.07
2022-12-07T23:08:38.279Z,17.95
2022-12-07T23:11:47.485Z,15.95
2022-12-07T23:14:35.262Z,12.90
2022-12-07T23:17:20.347Z,15.05
2022-12-07T23:20:06.375Z,14.73
2022-12-07T23:22:51.620Z,12.10
2022-12-07T23:25:37.002Z,11.30
2022-12-07T23:28:22.389Z,13.50
2022-12-07T23:31:16.749Z,11.40
2022-12-07T23:34:02.301Z,11.45
2022-12-07T23:36:47.676Z,12.57
2022-12-07T23:39:33.147Z,12.35
2022-12-07T23:42:18.641Z,14.20
2022-12-07T23:45:04.568Z,12.63
2022-12-07T23:47:49.665Z,13.70
2022-12-07T23:50:35.013Z,11.18
2022-12-07T23:53:20.352Z,9.88
2022-12-07T23:56:07.244Z,12.73
2022-12-07T23:58:53.968Z,10.18
